createdAt,value
2018-12-13T00:00:25.303Z,36.9
2018-12-13T00:01:15.632Z,36.9
2018-12-13T00:02:05.951Z,36.9
2018-12-13T00:02:55.487Z,36.9
2018-12-13T00:03:46.097Z,36.9
2018-12-13T00:04:36.456Z,36.9
2018-12-13T00:05:25.361Z,36.9
2018-12-13T00:06:15.985Z,36.9
2018-12-13T00:07:06.179Z,36.9
2018-12-13T00:07:55.621Z,36.9
2018-12-13T00:08:46.526Z,36.8
2018-12-13T00:09:36.316Z,36.8
2018-12-13T00:10:26.060Z,36.8
2018-12-13T00:11:16.473Z,36.8
2018-12-13T00:12:05.643Z,36.8
2018-12-13T00:12:55.953Z,36.8
2018-12-13T00:13:45.998Z,36.8
2018-12-13T00:14:35.845Z,36.8
2018-12-13T00:32:48.849Z,36.6
2018-12-13T00:33:39.119Z,36.6
2018-12-13T00:34:28.911Z,36.6
2018-12-13T00:35:18.496Z,36.6
2018-12-13T00:36:08.523Z,36.6
2018-12-13T00:36:58.596Z,36.6
2018-12-13T00:37:49.144Z,36.6
2018-12-13T00:38:39.236Z,36.6
2018-12-13T00:39:28.494Z,36.6
2018-12-13T00:40:18.525Z,36.5
2018-12-13T00:41:08.888Z,36.6
2018-12-13T00:41:59.240Z,36.5
2018-12-13T00:42:48.974Z,36.5
2018-12-13T00:43:39.058Z,36.5
2018-12-13T00:44:28.821Z,36.5
2018-12-13T00:45:19.437Z,36.5
2018-12-13T00:46:09.509Z,36.4
2018-12-13T00:46:59.543Z,36.4
2018-12-13T00:47:50.180Z,36.4
2018-12-13T00:48:39.381Z,36.4
2018-12-13T00:49:29.468Z,36.4
2018-12-13T00:50:19.223Z,36.4
2018-12-13T00:51:09.843Z,36.4
2018-12-13T00:51:59.330Z,36.4
2018-12-13T00:52:49.401Z,36.4
2018-12-13T00:53:40.015Z,36.4
2018-12-13T00:54:30.118Z,36.4
2018-12-13T00:55:20.145Z,36.4
2018-12-13T00:56:09.902Z,36.4
2018-12-13T00:57:00.225Z,36.4
2018-12-13T00:57:50.256Z,36.3
2018-12-13T00:58:40.101Z,36.3
2018-12-13T00:59:29.882Z,36.3
2018-12-13T01:00:20.471Z,36.3
2018-12-13T01:01:09.970Z,36.3
2018-12-13T01:02:00.040Z,36.3
2018-12-13T01:02:50.957Z,36.3
2018-12-13T01:03:40.477Z,36.3
2018-12-13T01:04:30.215Z,36.3
2018-12-13T01:05:20.544Z,36.3
2018-12-13T01:06:10.310Z,36.3
2018-12-13T01:07:00.299Z,36.3
2018-12-13T01:07:51.319Z,36.3
2018-12-13T01:08:40.797Z,36.3
2018-12-13T01:09:31.105Z,36.2
2018-12-13T01:10:20.987Z,36.3
2018-12-13T01:11:10.699Z,36.2
2018-12-13T01:12:00.919Z,36.2
2018-12-13T01:12:50.556Z,36.2
2018-12-13T01:13:41.647Z,36.2
2018-12-13T01:14:31.230Z,36.2
2018-12-13T01:15:21.982Z,36.2
2018-12-13T01:16:11.494Z,36.2
2018-12-13T01:17:01.632Z,36.1
2018-12-13T01:17:51.109Z,36.1
2018-12-13T01:18:41.554Z,36.1
2018-12-13T01:19:31.787Z,36.1
2018-12-13T01:20:22.046Z,36.1
2018-12-13T01:21:11.856Z,36.1
2018-12-13T01:22:02.450Z,36.1
2018-12-13T01:22:52.279Z,36.1
2018-12-13T01:23:41.806Z,36.1
2018-12-13T01:24:31.385Z,36.1
2018-12-13T01:25:22.201Z,36.1
2018-12-13T01:26:12.696Z,36.1
2018-12-13T01:27:01.765Z,36.1
2018-12-13T01:27:52.854Z,36
2018-12-13T01:28:42.949Z,36
2018-12-13T01:29:32.919Z,36
2018-12-13T01:30:23.021Z,36
2018-12-13T01:31:12.306Z,36
2018-12-13T01:32:02.592Z,35.9
2018-12-13T01:32:52.911Z,35.9
2018-12-13T01:33:43.216Z,36
2018-12-13T01:34:33.016Z,36
2018-12-13T01:35:22.831Z,35.9
2018-12-13T01:36:13.436Z,35.9
2018-12-13T01:37:03.191Z,35.9
2018-12-13T01:37:53.253Z,35.9
2018-12-13T01:38:43.591Z,35.9
2018-12-13T01:39:32.828Z,35.9
2018-12-13T01:40:23.136Z,35.9
2018-12-13T01:41:13.486Z,35.9
2018-12-13T01:42:03.576Z,35.9
2018-12-13T01:42:53.318Z,35.9
2018-12-13T01:43:43.976Z,35.9
2018-12-13T01:44:33.709Z,35.9
2018-12-13T01:45:23.498Z,35.9
2018-12-13T01:46:13.554Z,35.8
2018-12-13T01:47:03.638Z,35.8
2018-12-13T01:47:53.685Z,35.8
2018-12-13T01:48:44.515Z,35.8
2018-12-13T01:49:34.400Z,35.8
2018-12-13T01:50:23.835Z,35.8
2018-12-13T01:51:14.187Z,35.8
2018-12-13T01:52:04.238Z,35.8
2018-12-13T01:52:54.015Z,35.8
2018-12-13T01:53:44.358Z,35.8
2018-12-13T01:54:34.975Z,35.8
2018-12-13T01:55:24.177Z,35.8
2018-12-13T01:56:13.408Z,35.8
2018-12-13T01:57:04.850Z,35.8
2018-12-13T01:57:54.634Z,35.8
2018-12-13T01:58:44.702Z,35.8
2018-12-13T01:59:34.999Z,35.9
2018-12-13T02:00:24.528Z,36.1
2018-12-13T02:01:15.144Z,36.3
2018-12-13T02:02:05.457Z,36.5
2018-12-13T02:02:55.270Z,36.8
2018-12-13T02:03:45.061Z,36.9
2018-12-13T02:04:35.612Z,37.1
2018-12-13T02:05:24.879Z,37.3
2018-12-13T02:06:15.497Z,37.5
2018-12-13T02:07:05.594Z,37.6
2018-12-13T02:07:55.329Z,37.8
2018-12-13T02:08:45.664Z,37.9
2018-12-13T02:09:34.933Z,38
2018-12-13T02:10:25.550Z,38.1
2018-12-13T02:11:16.114Z,38.3
2018-12-13T02:12:05.309Z,38.4
2018-12-13T02:12:55.384Z,38.4
2018-12-13T02:13:44.962Z,38.6
2018-12-13T02:14:36.361Z,38.6
2018-12-13T02:15:25.901Z,38.8
2018-12-13T02:16:15.393Z,38.8
2018-12-13T02:17:05.665Z,38.9
2018-12-13T02:17:55.728Z,39
2018-12-13T02:18:45.518Z,39.1
2018-12-13T02:19:36.389Z,39.3
2018-12-13T02:20:26.529Z,39.3
2018-12-13T02:21:15.987Z,39.4
2018-12-13T02:22:06.078Z,39.5
2018-12-13T02:22:56.063Z,39.6
2018-12-13T02:23:46.418Z,39.7
2018-12-13T02:24:36.185Z,39.8
2018-12-13T02:25:26.510Z,39.9
2018-12-13T02:26:16.855Z,40.1
2018-12-13T02:27:06.633Z,40.1
2018-12-13T02:27:56.965Z,40.3
2018-12-13T02:28:47.026Z,40.4
2018-12-13T02:29:36.259Z,40.6
2018-12-13T02:30:27.257Z,40.7
2018-12-13T02:31:16.942Z,40.8
2018-12-13T02:32:06.826Z,40.9
2018-12-13T02:32:56.540Z,41
2018-12-13T02:33:46.828Z,41.1
2018-12-13T02:34:37.201Z,41.3
2018-12-13T02:35:27.528Z,41.4
2018-12-13T02:36:17.277Z,41.5
2018-12-13T02:37:10.205Z,41.6
2018-12-13T02:37:56.959Z,41.7
2018-12-13T02:38:47.452Z,41.8
2018-12-13T02:39:37.879Z,41.9
2018-12-13T02:40:27.067Z,42
2018-12-13T02:41:17.699Z,42.1
2018-12-13T02:42:07.149Z,42.3
2018-12-13T02:42:57.541Z,42.3
2018-12-13T02:43:47.521Z,42.4
2018-12-13T02:44:37.857Z,42.5
2018-12-13T02:45:27.979Z,42.6
2018-12-13T02:46:17.756Z,42.7
2018-12-13T02:47:07.757Z,42.8
2018-12-13T02:47:57.279Z,42.9
2018-12-13T02:48:48.162Z,43
2018-12-13T02:49:37.688Z,43.1
2018-12-13T02:50:27.964Z,43.3
2018-12-13T02:51:18.112Z,43.4
2018-12-13T02:52:09.888Z,43.5
2018-12-13T02:52:58.727Z,43.6
2018-12-13T02:53:48.810Z,43.8
2018-12-13T02:54:38.254Z,43.9
2018-12-13T02:55:28.738Z,44
2018-12-13T02:56:18.126Z,44.1
2018-12-13T02:57:08.520Z,44.2
2018-12-13T02:57:58.018Z,44.3
2018-12-13T02:58:48.880Z,44.4
2018-12-13T02:59:38.907Z,44.5
2018-12-13T03:00:29.006Z,44.6
2018-12-13T03:01:19.511Z,44.8
2018-12-13T03:02:09.315Z,44.9
2018-12-13T03:02:59.120Z,45
2018-12-13T03:03:49.425Z,45.1
2018-12-13T03:04:38.973Z,45.1
2018-12-13T03:05:28.737Z,45.1
2018-12-13T03:06:18.860Z,45.2
2018-12-13T03:07:17.263Z,45.2
2018-12-13T03:07:59.891Z,45.3
2018-12-13T03:08:49.790Z,45.3
2018-12-13T03:09:39.348Z,45.3
2018-12-13T03:10:29.627Z,45.3
2018-12-13T03:11:20.207Z,45.3
2018-12-13T03:12:09.495Z,45.3
2018-12-13T03:13:00.058Z,45.4
2018-12-13T03:13:49.304Z,45.4
2018-12-13T03:14:39.167Z,45.4
2018-12-13T03:15:28.668Z,45.4
2018-12-13T03:16:19.540Z,45.4
2018-12-13T03:17:09.912Z,45.5
2018-12-13T03:17:59.999Z,45.6
2018-12-13T03:18:49.752Z,45.6
2018-12-13T03:19:39.790Z,45.6
2018-12-13T03:20:30.127Z,45.6
2018-12-13T03:21:19.878Z,45.6
2018-12-13T03:22:09.990Z,45.7
2018-12-13T03:23:00.076Z,45.7
2018-12-13T03:23:50.312Z,45.7
2018-12-13T03:24:39.794Z,45.8
2018-12-13T03:25:30.408Z,45.8
2018-12-13T03:26:20.805Z,45.8
2018-12-13T03:27:10.575Z,45.8
2018-12-13T03:28:00.371Z,45.8
2018-12-13T03:28:50.406Z,45.8
2018-12-13T03:29:40.751Z,45.9
2018-12-13T03:30:31.187Z,45.9
2018-12-13T03:31:20.143Z,45.9
2018-12-13T03:32:11.324Z,45.9
2018-12-13T03:33:00.997Z,45.9
2018-12-13T03:33:51.228Z,45.9
2018-12-13T03:34:41.047Z,45.9
2018-12-13T03:35:31.351Z,45.9
2018-12-13T03:36:21.708Z,45.9
2018-12-13T03:37:11.212Z,45.9
2018-12-13T03:38:01.259Z,45.9
2018-12-13T03:38:51.578Z,45.9
2018-12-13T03:39:41.987Z,45.9
2018-12-13T03:40:31.969Z,45.9
2018-12-13T03:41:21.499Z,45.9
2018-12-13T03:42:12.087Z,45.9
2018-12-13T03:43:01.082Z,45.9
2018-12-13T03:43:51.909Z,45.9
2018-12-13T03:44:42.271Z,45.9
2018-12-13T03:45:32.085Z,45.9
2018-12-13T03:46:22.373Z,45.9
2018-12-13T03:47:12.474Z,45.9
2018-12-13T03:48:02.191Z,45.9
2018-12-13T03:48:52.327Z,45.9
2018-12-13T03:49:42.618Z,45.9
2018-12-13T03:50:32.106Z,45.9
2018-12-13T03:51:22.519Z,45.9
2018-12-13T03:52:11.906Z,45.9
2018-12-13T03:53:02.875Z,45.9
2018-12-13T03:53:52.347Z,45.9
2018-12-13T03:54:42.953Z,45.9
2018-12-13T03:55:33.050Z,45.9
2018-12-13T03:56:22.817Z,45.9
2018-12-13T03:57:13.132Z,45.9
2018-12-13T03:58:02.345Z,45.9
2018-12-13T03:58:52.727Z,45.9
2018-12-13T03:59:42.735Z,45.9
2018-12-13T04:00:32.845Z,45.9
2018-12-13T04:01:22.592Z,45.9
2018-12-13T04:02:13.159Z,45.9
2018-12-13T04:03:03.266Z,45.9
2018-12-13T04:03:52.969Z,45.9
2018-12-13T04:04:43.654Z,45.8
2018-12-13T04:05:33.414Z,45.8
2018-12-13T04:06:23.239Z,45.9
2018-12-13T04:07:13.088Z,45.8
2018-12-13T04:08:03.600Z,45.8
2018-12-13T04:08:53.380Z,45.8
2018-12-13T04:09:43.709Z,45.8
2018-12-13T04:10:33.001Z,45.8
2018-12-13T04:11:23.697Z,45.8
2018-12-13T04:12:14.529Z,45.8
2018-12-13T04:13:03.379Z,45.8
2018-12-13T04:13:53.569Z,45.8
2018-12-13T04:14:43.750Z,45.8
2018-12-13T04:15:33.949Z,45.8
2018-12-13T04:16:24.171Z,45.8
2018-12-13T04:17:13.926Z,45.8
2018-12-13T04:18:03.748Z,45.8
2018-12-13T04:18:54.585Z,45.8
2018-12-13T04:19:44.698Z,45.8
2018-12-13T04:20:34.731Z,45.8
2018-12-13T04:21:24.250Z,45.8
2018-12-13T04:22:14.943Z,45.8
2018-12-13T04:23:04.363Z,45.8
2018-12-13T04:23:54.400Z,45.7
2018-12-13T04:24:44.163Z,45.7
2018-12-13T04:25:35.535Z,45.7
2018-12-13T04:26:24.284Z,45.7
2018-12-13T04:27:14.640Z,45.7
2018-12-13T04:28:04.412Z,45.7
2018-12-13T04:28:54.500Z,45.7
2018-12-13T04:29:45.080Z,45.7
2018-12-13T04:30:36.225Z,45.6
2018-12-13T04:31:25.472Z,45.7
2018-12-13T04:32:15.611Z,45.6
2018-12-13T04:33:05.297Z,45.6
2018-12-13T04:33:55.120Z,45.6
2018-12-13T04:34:45.122Z,45.6
2018-12-13T04:35:36.074Z,45.6
2018-12-13T04:36:24.992Z,45.6
2018-12-13T04:37:15.870Z,45.6
2018-12-13T04:38:05.125Z,45.6
2018-12-13T04:38:55.753Z,45.6
2018-12-13T04:39:45.804Z,45.6
2018-12-13T04:40:35.806Z,45.6
2018-12-13T04:41:25.946Z,45.6
2018-12-13T04:42:16.206Z,45.6
2018-12-13T04:43:06.035Z,45.6
2018-12-13T04:43:55.473Z,45.6
2018-12-13T04:44:45.569Z,45.6
2018-12-13T05:02:01.690Z,45.3
2018-12-13T05:02:51.408Z,45.3
2018-12-13T05:03:42.357Z,45.4
2018-12-13T05:04:31.770Z,45.3
2018-12-13T05:05:21.830Z,45.3
2018-12-13T05:06:12.412Z,45.3
2018-12-13T05:07:02.478Z,45.3
2018-12-13T05:07:52.297Z,45.3
2018-12-13T05:08:42.048Z,45.3
2018-12-13T05:09:32.087Z,45.3
2018-12-13T05:10:21.637Z,45.3
2018-12-13T05:11:11.647Z,45.3
2018-12-13T05:12:02.332Z,45.3
2018-12-13T05:12:52.050Z,45.2
2018-12-13T05:13:42.680Z,45.3
2018-12-13T05:14:32.179Z,45.2
2018-12-13T05:15:21.409Z,45.2
2018-12-13T05:16:12.822Z,45.2
2018-12-13T05:17:02.349Z,45.2
2018-12-13T05:17:52.407Z,45.1
2018-12-13T05:18:42.999Z,45.1
2018-12-13T05:19:32.784Z,45.1
2018-12-13T05:20:23.123Z,45.1
2018-12-13T05:21:12.894Z,45.1
2018-12-13T05:22:02.971Z,45.1
2018-12-13T05:22:53.264Z,45.1
2018-12-13T05:23:43.061Z,45.1
2018-12-13T05:24:32.276Z,45.1
2018-12-13T05:25:23.200Z,45.1
2018-12-13T05:26:12.682Z,45.1
2018-12-13T05:27:03.593Z,45.1
2018-12-13T05:27:53.889Z,45.1
2018-12-13T05:28:43.164Z,45
2018-12-13T05:29:33.731Z,45
2018-12-13T05:30:22.993Z,45
2018-12-13T05:31:14.627Z,45
2018-12-13T05:32:03.344Z,45
2018-12-13T05:32:53.964Z,45
2018-12-13T05:33:43.587Z,45
2018-12-13T05:34:33.641Z,45
2018-12-13T05:35:23.631Z,44.9
2018-12-13T05:36:14.181Z,44.9
2018-12-13T05:37:03.693Z,44.9
2018-12-13T05:37:53.827Z,44.9
2018-12-13T05:38:44.378Z,44.9
2018-12-13T05:39:34.446Z,44.9
2018-12-13T05:40:24.221Z,44.9
2018-12-13T05:41:13.987Z,44.9
2018-12-13T05:42:04.013Z,44.8
2018-12-13T05:42:54.096Z,44.8
2018-12-13T05:43:44.193Z,44.8
2018-12-13T05:44:33.943Z,44.8
2018-12-13T05:45:24.576Z,44.8
2018-12-13T05:46:14.348Z,44.8
2018-12-13T05:47:04.448Z,44.8
2018-12-13T05:47:54.483Z,44.8
2018-12-13T05:48:44.750Z,44.8
2018-12-13T05:49:35.387Z,44.8
2018-12-13T05:50:25.180Z,44.8
2018-12-13T05:51:15.315Z,44.8
2018-12-13T05:52:05.307Z,44.8
2018-12-13T05:52:55.083Z,44.8
2018-12-13T05:53:44.895Z,44.8
2018-12-13T05:54:35.187Z,44.8
2018-12-13T05:55:25.258Z,44.7
2018-12-13T05:56:15.575Z,44.7
2018-12-13T05:57:05.087Z,44.7
2018-12-13T05:57:55.395Z,44.6
2018-12-13T05:58:45.460Z,44.6
2018-12-13T05:59:34.765Z,44.6
2018-12-13T06:00:25.367Z,44.6
2018-12-13T06:01:15.637Z,44.6
2018-12-13T06:02:06.011Z,44.6
2018-12-13T06:02:55.202Z,44.6
2018-12-13T06:03:45.812Z,44.6
2018-12-13T06:04:35.114Z,44.6
2018-12-13T06:05:24.799Z,44.5
2018-12-13T06:06:15.482Z,44.5
2018-12-13T06:07:06.119Z,44.5
2018-12-13T06:07:59.458Z,44.5
2018-12-13T06:08:45.589Z,44.4
2018-12-13T06:09:36.203Z,44.4
2018-12-13T06:10:25.959Z,44.4
2018-12-13T06:11:16.321Z,44.4
2018-12-13T06:12:06.672Z,44.4
2018-12-13T06:12:56.249Z,44.4
2018-12-13T06:13:46.291Z,44.4
2018-12-13T06:14:36.517Z,44.4
2018-12-13T06:15:26.031Z,44.4
2018-12-13T06:16:16.970Z,44.4
2018-12-13T06:17:06.710Z,44.4
2018-12-13T06:17:56.773Z,44.4
2018-12-13T06:18:46.818Z,44.4
2018-12-13T06:19:36.896Z,44.4
2018-12-13T06:20:27.268Z,44.4
2018-12-13T06:21:17.063Z,44.4
2018-12-13T06:22:06.514Z,44.4
2018-12-13T06:22:57.162Z,44.4
2018-12-13T06:23:47.231Z,44.4
2018-12-13T06:24:36.471Z,44.4
2018-12-13T06:25:27.276Z,44.4
2018-12-13T06:26:17.334Z,44.4
2018-12-13T06:27:07.111Z,44.4
2018-12-13T06:27:56.909Z,44.4
2018-12-13T06:28:47.503Z,44.4
2018-12-13T06:29:50.437Z,44.4
2018-12-13T06:30:27.070Z,44.4
2018-12-13T06:31:18.199Z,44.4
2018-12-13T06:32:07.698Z,44.3
2018-12-13T06:32:57.540Z,44.3
2018-12-13T06:33:47.578Z,44.3
2018-12-13T06:34:37.873Z,44.3
2018-12-13T06:35:27.963Z,44.3
2018-12-13T06:36:18.290Z,44.3
2018-12-13T06:37:08.650Z,44.3
2018-12-13T06:38:04.475Z,44.3
2018-12-13T06:38:48.175Z,44.3
2018-12-13T06:39:37.975Z,44.3
2018-12-13T06:40:28.030Z,44.3
2018-12-13T06:41:18.641Z,44.3
2018-12-13T06:42:08.915Z,44.2
2018-12-13T06:42:58.750Z,44.2
2018-12-13T06:43:48.532Z,44.2
2018-12-13T06:44:38.313Z,44.2
2018-12-13T06:45:28.378Z,44.2
2018-12-13T06:46:18.780Z,44.1
2018-12-13T06:47:09.057Z,44.1
2018-12-13T06:47:58.820Z,44.1
2018-12-13T06:48:49.108Z,44.1
2018-12-13T06:49:37.850Z,44.1
2018-12-13T06:50:28.444Z,44.1
2018-12-13T06:51:20.705Z,44.1
2018-12-13T06:52:09.472Z,44.1
2018-12-13T06:52:59.437Z,44.1
2018-12-13T06:53:48.364Z,44.1
2018-12-13T06:54:39.265Z,44.1
2018-12-13T06:55:28.487Z,44.1
2018-12-13T06:56:19.377Z,44
2018-12-13T06:57:09.222Z,44
2018-12-13T06:58:00.106Z,44
2018-12-13T06:58:49.278Z,44
2018-12-13T06:59:39.615Z,43.9
2018-12-13T07:00:29.671Z,43.9
2018-12-13T07:01:18.911Z,43.9
2018-12-13T07:02:09.235Z,43.9
2018-12-13T07:02:59.864Z,43.8
2018-12-13T07:03:50.169Z,43.8
2018-12-13T07:04:39.677Z,43.8
2018-12-13T07:05:29.441Z,43.8
2018-12-13T07:06:19.341Z,43.8
2018-12-13T07:07:09.916Z,43.8
2018-12-13T07:08:00.406Z,43.8
2018-12-13T07:08:49.481Z,43.8
2018-12-13T07:09:40.318Z,43.7
2018-12-13T07:10:30.077Z,43.7
2018-12-13T07:11:20.151Z,43.7
2018-12-13T07:12:10.748Z,43.7
2018-12-13T07:13:01.028Z,43.7
2018-12-13T07:13:50.275Z,43.7
2018-12-13T07:14:40.079Z,43.6
2018-12-13T07:15:30.414Z,43.6
2018-12-13T07:16:21.015Z,43.6
2018-12-13T07:17:11.081Z,43.6
2018-12-13T07:18:01.106Z,43.6
2018-12-13T07:18:50.631Z,43.6
2018-12-13T07:19:41.232Z,43.6
2018-12-13T07:20:31.389Z,43.6
2018-12-13T07:21:20.797Z,43.6
2018-12-13T07:22:10.300Z,43.5
2018-12-13T07:23:01.251Z,43.5
2018-12-13T07:23:51.250Z,43.4
2018-12-13T07:24:41.330Z,43.4
2018-12-13T07:25:31.085Z,43.4
2018-12-13T07:26:21.437Z,43.4
2018-12-13T07:27:10.975Z,43.4
2018-12-13T07:28:01.292Z,43.4
2018-12-13T07:28:51.330Z,43.4
2018-12-13T07:29:41.359Z,43.4
2018-12-13T07:30:30.850Z,43.4
2018-12-13T07:31:21.502Z,43.4
2018-12-13T07:32:11.070Z,43.4
2018-12-13T07:33:01.892Z,43.4
2018-12-13T07:33:51.680Z,43.4
2018-12-13T07:34:42.269Z,43.4
2018-12-13T07:35:32.087Z,43.4
2018-12-13T07:36:21.834Z,43.3
2018-12-13T07:37:11.062Z,43.3
2018-12-13T07:38:01.957Z,43.3
2018-12-13T07:38:52.559Z,43.3
2018-12-13T07:39:42.664Z,43.3
2018-12-13T07:40:31.856Z,43.2
2018-12-13T07:41:22.205Z,43.2
2018-12-13T07:42:11.959Z,43.1
2018-12-13T07:43:01.767Z,43.1
2018-12-13T07:43:52.588Z,43.1
2018-12-13T07:44:42.707Z,43.1
2018-12-13T07:45:32.776Z,43.1
2018-12-13T07:46:21.992Z,43.1
2018-12-13T07:47:12.856Z,43.1
2018-12-13T07:48:03.256Z,43.1
2018-12-13T07:48:58.736Z,43.1
2018-12-13T07:49:42.503Z,43.1
2018-12-13T07:50:32.558Z,47.8
2018-12-13T07:51:23.403Z,51.1
2018-12-13T07:52:13.186Z,48.3
2018-12-13T07:53:03.256Z,52.5
2018-12-13T07:53:53.056Z,54.6
2018-12-13T07:54:43.493Z,54.8
2018-12-13T07:55:33.435Z,54.6
2018-12-13T07:56:24.036Z,54.1
2018-12-13T07:57:13.540Z,53.6
2018-12-13T07:58:03.923Z,53.1
2018-12-13T07:58:53.663Z,52.6
2018-12-13T07:59:43.975Z,52.2
2018-12-13T08:00:33.526Z,51.8
2018-12-13T08:01:23.894Z,51.4
2018-12-13T08:02:13.625Z,51.1
2018-12-13T08:03:03.485Z,50.8
2018-12-13T08:03:54.265Z,50.6
2018-12-13T08:04:44.035Z,50.3
2018-12-13T08:05:34.133Z,50.1
2018-12-13T08:06:24.436Z,49.9
2018-12-13T08:07:13.963Z,49.7
2018-12-13T08:08:04.327Z,49.5
2018-12-13T08:08:54.670Z,49.4
2018-12-13T08:09:44.948Z,49.2
2018-12-13T08:10:33.624Z,49.1
2018-12-13T08:11:24.499Z,48.9
2018-12-13T08:12:14.847Z,52.2
2018-12-13T08:13:04.963Z,52.5
2018-12-13T08:13:54.808Z,52.8
2018-12-13T08:14:45.007Z,55.6
2018-12-13T08:15:34.884Z,56.8
2018-12-13T08:16:24.867Z,56.5
2018-12-13T08:17:14.929Z,55.4
2018-12-13T08:18:04.979Z,55
2018-12-13T08:18:54.517Z,55
2018-12-13T08:19:45.634Z,55.3
2018-12-13T08:20:33.827Z,55.7
2018-12-13T08:21:25.026Z,56.1
2018-12-13T08:22:14.976Z,56.4
2018-12-13T08:23:05.392Z,56.6
2018-12-13T08:23:55.111Z,56.6
2018-12-13T08:24:45.441Z,56.6
2018-12-13T08:25:35.774Z,56.7
2018-12-13T08:26:25.821Z,56.8
2018-12-13T08:27:15.066Z,56.9
2018-12-13T08:28:06.587Z,57
2018-12-13T08:28:55.724Z,57.1
2018-12-13T08:29:46.041Z,57.3
2018-12-13T08:30:35.837Z,57.4
2018-12-13T08:31:26.164Z,57.4
2018-12-13T08:32:16.201Z,57.5
2018-12-13T08:33:06.016Z,57.6
2018-12-13T08:33:56.363Z,57.7
2018-12-13T08:35:36.451Z,57.9
2018-12-13T08:36:26.516Z,58
2018-12-13T08:37:16.816Z,58.1
2018-12-13T08:38:05.862Z,58.2
2018-12-13T08:38:56.430Z,58.3
2018-12-13T08:39:46.201Z,58.4
2018-12-13T08:40:36.839Z,58.4
2018-12-13T08:41:26.032Z,58.5
2018-12-13T08:42:17.167Z,58.6
2018-12-13T08:43:06.440Z,58.7
2018-12-13T08:43:55.958Z,58.8
2018-12-13T08:44:46.798Z,58.9
2018-12-13T08:45:36.661Z,59
2018-12-13T08:46:27.288Z,59.1
2018-12-13T08:47:16.708Z,59.1
2018-12-13T08:48:07.054Z,59.2
2018-12-13T08:48:56.823Z,59.3
2018-12-13T08:49:47.168Z,59.4
2018-12-13T08:50:37.733Z,59.4
2018-12-13T08:51:26.850Z,59.5
2018-12-13T08:52:16.502Z,59.6
2018-12-13T08:53:07.807Z,59.6
2018-12-13T08:53:57.427Z,59.7
2018-12-13T08:54:47.226Z,59.8
2018-12-13T08:55:36.485Z,59.9
2018-12-13T08:56:28.482Z,59.9
2018-12-13T08:57:17.953Z,60
2018-12-13T08:58:06.957Z,60
2018-12-13T08:58:58.057Z,60.1
2018-12-13T08:59:47.340Z,60.2
2018-12-13T09:00:38.174Z,60.3
2018-12-13T09:16:33.027Z,61.3
2018-12-13T09:17:17.131Z,61.4
2018-12-13T09:18:06.001Z,61.4
2018-12-13T09:18:56.660Z,61.5
2018-12-13T09:19:47.696Z,61.6
2018-12-13T09:20:36.706Z,61.6
2018-12-13T09:21:27.384Z,61.7
2018-12-13T09:22:16.544Z,61.7
2018-12-13T09:23:06.066Z,61.8
2018-12-13T09:23:56.998Z,61.8
2018-12-13T09:24:47.024Z,61.9
2018-12-13T09:25:37.062Z,61.9
2018-12-13T09:26:27.971Z,61.9
2018-12-13T09:27:18.199Z,62
2018-12-13T09:28:07.592Z,62.1
2018-12-13T09:28:57.640Z,62.1
2018-12-13T09:29:47.286Z,62.1
2018-12-13T09:30:38.041Z,62.2
2018-12-13T09:31:27.717Z,62.2
2018-12-13T09:32:17.511Z,62.3
2018-12-13T09:33:07.846Z,62.3
2018-12-13T09:33:57.906Z,62.4
2018-12-13T09:34:48.268Z,62.4
2018-12-13T09:35:38.015Z,62.4
2018-12-13T09:36:28.333Z,62.5
2018-12-13T09:37:18.426Z,62.6
2018-12-13T09:38:08.250Z,62.7
2018-12-13T09:38:58.525Z,62.7
2018-12-13T09:39:48.260Z,62.7
2018-12-13T09:40:38.879Z,62.8
2018-12-13T09:41:28.802Z,62.8
2018-12-13T09:42:18.480Z,62.9
2018-12-13T09:43:08.257Z,62.9
2018-12-13T09:43:58.601Z,62.9
2018-12-13T09:44:48.634Z,63
2018-12-13T09:45:38.467Z,63.1
2018-12-13T09:46:28.471Z,63.1
2018-12-13T09:47:18.830Z,63.1
2018-12-13T09:48:08.877Z,63.1
2018-12-13T09:48:58.390Z,63.2
2018-12-13T09:49:48.515Z,63.3
2018-12-13T09:50:38.767Z,63.3
2018-12-13T09:51:28.866Z,63.3
2018-12-13T09:52:18.895Z,63.4
2018-12-13T09:53:09.235Z,63.4
2018-12-13T09:53:59.289Z,63.5
2018-12-13T09:54:49.065Z,63.5
2018-12-13T09:55:39.669Z,63.6
2018-12-13T09:56:28.866Z,63.6
2018-12-13T09:57:19.029Z,63.7
2018-12-13T09:58:09.844Z,63.7
2018-12-13T09:58:59.066Z,63.8
2018-12-13T09:59:49.116Z,63.8
2018-12-13T10:00:40.261Z,63.9
2018-12-13T10:01:29.251Z,63.9
2018-12-13T10:02:19.296Z,63.9
2018-12-13T10:03:09.637Z,64
2018-12-13T10:04:00.254Z,64
2018-12-13T10:04:49.811Z,64.1
2018-12-13T10:05:39.524Z,64.1
2018-12-13T10:06:29.652Z,64.1
2018-12-13T10:07:19.996Z,64.3
2018-12-13T10:08:10.586Z,64.3
2018-12-13T10:09:00.041Z,64.3
2018-12-13T10:09:50.095Z,64.3
2018-12-13T10:10:41.311Z,64.4
2018-12-13T10:11:30.508Z,64.4
2018-12-13T10:12:20.245Z,64.5
2018-12-13T10:13:11.351Z,64.5
2018-12-13T10:13:59.828Z,64.5
2018-12-13T10:14:50.710Z,64.6
2018-12-13T10:15:40.796Z,64.6
2018-12-13T10:16:31.110Z,64.7
2018-12-13T10:17:21.244Z,64.7
2018-12-13T10:18:10.670Z,64.8
2018-12-13T10:19:01.013Z,64.7
2018-12-13T10:19:51.058Z,64.8
2018-12-13T10:20:41.125Z,64.9
2018-12-13T10:21:31.199Z,64.9
2018-12-13T10:22:21.239Z,64.9
2018-12-13T10:23:10.742Z,64.9
2018-12-13T10:24:01.660Z,64.9
2018-12-13T10:24:51.392Z,65
2018-12-13T10:25:41.220Z,65.1
2018-12-13T10:26:31.247Z,65.1
2018-12-13T10:27:21.269Z,65.2
2018-12-13T10:28:12.003Z,65.3
2018-12-13T10:29:01.747Z,65.3
2018-12-13T10:29:52.029Z,65.3
2018-12-13T10:30:41.607Z,65.4
2018-12-13T10:31:32.701Z,65.4
2018-12-13T10:32:21.152Z,65.4
2018-12-13T10:33:11.674Z,65.4
2018-12-13T10:34:02.335Z,65.5
2018-12-13T10:34:51.829Z,65.5
2018-12-13T10:35:42.171Z,65.6
2018-12-13T10:36:32.465Z,65.6
2018-12-13T10:37:22.301Z,65.6
2018-12-13T10:38:11.976Z,65.7
2018-12-13T10:39:02.088Z,65.8
2018-12-13T10:39:52.433Z,65.8
2018-12-13T10:40:42.766Z,65.8
2018-12-13T10:41:31.889Z,65.8
2018-12-13T10:42:23.833Z,65.9
2018-12-13T10:43:12.915Z,65.9
2018-12-13T10:44:02.736Z,65.9
2018-12-13T10:44:52.503Z,65.9
2018-12-13T10:45:42.563Z,65.9
2018-12-13T10:46:33.245Z,65.9
2018-12-13T10:47:22.390Z,66
2018-12-13T10:48:13.265Z,66
2018-12-13T10:49:02.588Z,66
2018-12-13T10:49:52.937Z,66
2018-12-13T10:50:42.153Z,66.1
2018-12-13T10:51:32.770Z,66.1
2018-12-13T10:52:25.040Z,66.1
2018-12-13T10:53:13.151Z,66.1
2018-12-13T10:54:02.875Z,66.1
2018-12-13T10:54:53.778Z,66.2
2018-12-13T10:55:43.245Z,66.2
2018-12-13T10:56:33.318Z,66.2
2018-12-13T10:57:23.704Z,66.2
2018-12-13T10:58:13.408Z,66.3
2018-12-13T10:59:03.213Z,66.3
2018-12-13T10:59:53.531Z,66.3
2018-12-13T11:00:43.884Z,66.4
2018-12-13T11:01:34.195Z,66.4
2018-12-13T11:02:23.951Z,66.4
2018-12-13T11:03:13.766Z,66.4
2018-12-13T11:04:03.523Z,66.5
2018-12-13T11:04:53.960Z,66.5
2018-12-13T11:05:43.922Z,66.5
2018-12-13T11:06:33.758Z,66.6
2018-12-13T11:07:24.430Z,66.6
2018-12-13T11:08:14.351Z,66.6
2018-12-13T11:09:04.682Z,66.6
2018-12-13T11:09:54.497Z,66.6
2018-12-13T11:10:44.797Z,66.6
2018-12-13T11:11:34.619Z,66.6
2018-12-13T11:12:24.439Z,66.6
2018-12-13T11:13:14.507Z,66.6
2018-12-13T11:14:05.299Z,66.6
2018-12-13T11:14:55.119Z,66.6
2018-12-13T11:15:44.728Z,66.7
2018-12-13T11:16:34.117Z,66.7
2018-12-13T11:17:25.012Z,66.7
2018-12-13T11:18:15.097Z,66.7
2018-12-13T11:19:05.404Z,66.8
2018-12-13T11:19:54.199Z,66.8
2018-12-13T11:20:43.927Z,66.8
2018-12-13T11:21:35.099Z,66.8
2018-12-13T11:22:24.327Z,66.8
2018-12-13T11:23:15.387Z,66.8
2018-12-13T11:24:06.252Z,66.8
2018-12-13T11:24:54.966Z,66.8
2018-12-13T11:25:45.914Z,66.8
2018-12-13T11:26:35.658Z,66.8
2018-12-13T11:27:25.678Z,66.7
2018-12-13T11:28:15.753Z,66.7
2018-12-13T11:29:05.941Z,66.7
2018-12-13T11:29:55.321Z,66.6
2018-12-13T11:30:45.718Z,66.6
2018-12-13T11:31:36.237Z,66.6
2018-12-13T11:32:25.558Z,66.5
2018-12-13T11:33:16.096Z,66.4
2018-12-13T11:34:05.685Z,66.4
2018-12-13T11:34:55.910Z,66.5
2018-12-13T11:35:45.171Z,66.6
2018-12-13T11:36:36.685Z,66.6
2018-12-13T11:37:26.668Z,66.6
2018-12-13T11:38:16.211Z,66.6
2018-12-13T11:39:10.833Z,66.6
2018-12-13T11:39:56.335Z,66.6
2018-12-13T11:40:46.335Z,66.6
2018-12-13T11:41:36.145Z,66.6
2018-12-13T11:42:27.038Z,66.6
2018-12-13T11:43:16.797Z,66.7
2018-12-13T11:44:07.202Z,66.6
2018-12-13T11:44:57.467Z,66.6
2018-12-13T11:45:47.032Z,66.6
2018-12-13T11:46:37.021Z,66.6
2018-12-13T11:47:26.957Z,66.6
2018-12-13T11:48:17.417Z,66.6
2018-12-13T11:49:13.199Z,66.6
2018-12-13T11:49:57.326Z,66.6
2018-12-13T11:50:47.875Z,66.5
2018-12-13T11:51:36.807Z,66.5
2018-12-13T11:52:27.149Z,66.5
2018-12-13T11:53:16.984Z,66.5
2018-12-13T11:54:07.823Z,66.4
2018-12-13T11:54:57.586Z,66.4
2018-12-13T11:55:47.649Z,66.4
2018-12-13T11:56:38.247Z,66.4
2018-12-13T11:57:27.761Z,66.4
2018-12-13T11:58:18.111Z,66.4